Time;durP1;ratioP1;P1;durP2;ratioP2;P2;SDS_P1;SDS_P2;PMS_P1;PMS_P2;Temp;Humidity;BMP_temperature;BMP_pressure;BME280_temperature;BME280_humidity;BME280_pressure;Samples;Min_cycle;Max_cycle;Signal;HPM_P1;HPM_P2
2021/12/19 05:01:31;;;;;;;57.53;19.23;;;2.80;99.90;;;;;;5594397;23;21042;-72
2021/12/19 05:04:10;;;;;;;66.80;21.57;;;2.80;99.90;;;;;;4956097;28;20476;-72
2021/12/19 05:14:01;;;;;;;62.10;20.70;;;2.80;99.90;;;;;;4954939;28;20457;-72
2021/12/19 05:15:04;;;;;;;69.07;20.13;;;2.80;99.90;;;;;;4995255;23;20550;-68
2021/12/19 05:17:33;;;;;;;81.00;22.90;;;2.90;99.90;;;;;;4955557;29;20445;-69
2021/12/19 05:20:13;;;;;;;82.17;23.60;;;2.90;99.90;;;;;;4954940;28;20540;-69
2021/12/19 05:22:47;;;;;;;68.63;19.97;;;2.90;99.90;;;;;;4955476;29;20807;-69
2021/12/19 05:25:15;;;;;;;66.63;20.37;;;2.90;99.90;;;;;;4955361;28;20923;-68
2021/12/19 05:27:44;;;;;;;75.10;21.53;;;2.80;99.90;;;;;;4955452;29;20547;-69
2021/12/19 05:30:12;;;;;;;75.30;23.60;;;2.80;99.90;;;;;;4955032;29;20852;-69
2021/12/19 05:32:41;;;;;;;73.23;22.40;;;2.80;99.90;;;;;;4955167;28;20468;-69
2021/12/19 05:35:11;;;;;;;88.73;22.10;;;2.80;99.90;;;;;;4955118;28;20500;-69
2021/12/19 05:45:51;;;;;;;81.17;23.50;;;2.90;99.90;;;;;;4955141;28;20460;-69
2021/12/19 05:48:20;;;;;;;87.33;23.03;;;2.90;99.90;;;;;;4955137;29;20536;-69
2021/12/19 05:50:47;;;;;;;80.97;22.00;;;2.90;99.90;;;;;;4954878;29;20829;-69
2021/12/19 05:53:15;;;;;;;77.80;21.53;;;3.00;99.90;;;;;;4954983;29;20489;-69
2021/12/19 05:55:42;;;;;;;60.90;20.27;;;3.00;99.90;;;;;;4954506;28;20540;-69
2021/12/19 05:58:09;;;;;;;81.30;23.80;;;3.00;99.90;;;;;;4955050;29;20480;-69
2021/12/19 06:00:37;;;;;;;79.20;22.80;;;2.90;99.90;;;;;;4954677;29;20463;-69
2021/12/19 06:03:04;;;;;;;70.57;21.60;;;2.90;99.90;;;;;;4954560;29;20931;-69
2021/12/19 06:05:33;;;;;;;92.63;23.30;;;2.80;99.90;;;;;;4954664;28;20469;-68
2021/12/19 06:08:00;;;;;;;81.40;22.50;;;2.80;99.90;;;;;;4954671;29;20468;-69
2021/12/19 06:10:28;;;;;;;71.33;21.33;;;2.80;99.90;;;;;;4954233;29;20457;-69
2021/12/19 06:12:57;;;;;;;91.23;23.20;;;2.80;99.90;;;;;;4954702;28;20953;-70
2021/12/19 06:15:25;;;;;;;83.70;21.10;;;2.80;99.90;;;;;;4954311;28;20579;-70
2021/12/19 06:17:52;;;;;;;77.50;20.80;;;2.80;99.90;;;;;;4954250;28;20526;-71
2021/12/19 06:20:20;;;;;;;82.90;21.10;;;2.80;99.90;;;;;;4954662;29;20822;-69
2021/12/19 06:22:48;;;;;;;77.07;20.73;;;2.80;99.90;;;;;;4954238;29;20540;-69
2021/12/19 06:25:15;;;;;;;83.30;21.90;;;2.70;99.90;;;;;;4954580;28;20556;-70
2021/12/19 06:27:42;;;;;;;88.83;23.60;;;2.80;99.90;;;;;;4954632;29;20535;-69
2021/12/19 06:30:10;;;;;;;62.33;19.17;;;2.80;99.90;;;;;;4954026;29;20493;-69
2021/12/19 06:32:37;;;;;;;64.67;17.87;;;2.80;99.90;;;;;;4955247;29;20489;-69
2021/12/19 06:35:11;;;;;;;63.90;19.20;;;2.70;99.90;;;;;;4954398;28;20580;-70
2021/12/19 06:37:38;;;;;;;65.90;19.40;;;2.80;99.90;;;;;;4954403;29;20544;-71
2021/12/19 06:40:09;;;;;;;65.90;19.00;;;2.80;99.90;;;;;;4954093;29;20926;-69
2021/12/19 06:42:36;;;;;;;58.53;17.27;;;2.80;99.90;;;;;;4954550;28;20539;-69
2021/12/19 06:45:05;;;;;;;66.50;17.83;;;2.90;99.90;;;;;;4953796;28;20468;-69
2021/12/19 06:47:32;;;;;;;55.00;16.87;;;2.90;99.90;;;;;;4937948;29;20454;-70
2021/12/19 06:49:59;;;;;;;66.50;18.33;;;2.90;99.90;;;;;;4949251;29;20531;-73
2021/12/19 06:52:26;;;;;;;55.63;17.30;;;2.90;99.90;;;;;;4951782;29;20535;-69
2021/12/19 06:54:53;;;;;;;62.77;16.93;;;2.90;99.90;;;;;;4953718;29;20498;-70
2021/12/19 06:57:21;;;;;;;50.40;16.17;;;2.90;99.90;;;;;;4953908;29;20504;-69
2021/12/19 06:59:48;;;;;;;52.67;16.60;;;3.00;99.90;;;;;;4953604;28;20535;-70
2021/12/19 07:02:16;;;;;;;50.17;14.83;;;3.00;99.90;;;;;;4953665;29;20456;-70
2021/12/19 07:04:43;;;;;;;45.50;14.40;;;3.00;99.90;;;;;;4953685;29;20820;-69
2021/12/19 07:07:10;;;;;;;50.57;13.80;;;3.00;99.90;;;;;;4954001;28;20541;-69
2021/12/19 07:09:38;;;;;;;46.17;14.70;;;3.00;99.90;;;;;;4953509;29;21299;-70
2021/12/19 07:12:07;;;;;;;41.03;13.40;;;3.00;99.90;;;;;;4952962;29;20508;-70
2021/12/19 07:14:36;;;;;;;47.83;14.10;;;3.10;99.90;;;;;;4952852;29;20583;-70
2021/12/19 07:17:03;;;;;;;42.00;15.70;;;3.10;99.90;;;;;;4953523;29;20457;-70
2021/12/19 07:19:30;;;;;;;46.53;15.20;;;3.10;99.90;;;;;;4953382;28;20455;-70
2021/12/19 07:21:57;;;;;;;46.33;14.40;;;3.10;99.90;;;;;;4953820;29;20448;-70
2021/12/19 07:24:23;;;;;;;56.20;14.50;;;3.10;99.90;;;;;;4953526;28;20559;-72
2021/12/19 07:26:50;;;;;;;47.73;16.23;;;3.10;99.90;;;;;;4953630;29;20653;-71
2021/12/19 07:29:17;;;;;;;45.03;15.10;;;3.10;99.90;;;;;;4954090;28;20459;-72
2021/12/19 07:31:46;;;;;;;40.27;13.80;;;3.00;99.90;;;;;;4957432;29;20539;-69
2021/12/19 07:34:13;;;;;;;42.13;13.60;;;3.00;99.90;;;;;;4957428;28;20457;-69
2021/12/19 07:36:43;;;;;;;44.27;14.87;;;3.10;99.90;;;;;;4957534;29;20496;-72
2021/12/19 07:39:22;;;;;;;41.80;14.67;;;3.00;99.90;;;;;;4957236;28;20498;-71
2021/12/19 07:41:49;;;;;;;46.73;13.77;;;3.00;99.90;;;;;;4957311;29;21015;-71
2021/12/19 07:44:15;;;;;;;38.03;12.73;;;3.00;99.90;;;;;;4957166;29;20556;-71
2021/12/19 07:46:44;;;;;;;42.57;14.83;;;3.00;99.90;;;;;;4957373;29;20552;-71
2021/12/19 07:49:12;;;;;;;33.60;12.80;;;3.00;99.90;;;;;;4956860;29;20932;-70
2021/12/19 07:51:39;;;;;;;34.93;14.40;;;3.00;99.90;;;;;;4957025;29;20945;-72
2021/12/19 07:54:06;;;;;;;39.77;14.30;;;2.90;99.90;;;;;;4957072;29;20544;-71
2021/12/19 07:56:33;;;;;;;42.17;14.60;;;2.90;99.90;;;;;;4956767;29;20579;-72
2021/12/19 07:59:00;;;;;;;41.50;14.57;;;2.90;99.90;;;;;;4956774;29;20488;-71
2021/12/19 08:01:27;;;;;;;42.60;13.93;;;2.90;99.90;;;;;;4957086;29;20456;-71
2021/12/19 08:03:54;;;;;;;35.83;11.40;;;2.90;99.90;;;;;;4956809;29;20543;-70
2021/12/19 08:06:22;;;;;;;35.77;12.30;;;2.90;99.90;;;;;;4956885;29;20449;-71
2021/12/19 08:08:53;;;;;;;34.67;12.73;;;2.80;99.90;;;;;;4936856;29;20549;-71
2021/12/19 08:14:05;;;;;;;35.87;11.93;;;2.80;99.90;;;;;;4955682;29;20444;-71
2021/12/19 08:16:32;;;;;;;33.80;12.87;;;2.80;99.90;;;;;;4956025;29;20497;-70
2021/12/19 08:18:59;;;;;;;30.57;11.57;;;2.80;99.90;;;;;;4956349;29;20459;-70
2021/12/19 08:21:27;;;;;;;33.77;12.67;;;2.80;99.90;;;;;;4956544;28;20460;-71
2021/12/19 08:23:58;;;;;;;31.97;10.77;;;2.90;99.90;;;;;;4956797;28;20962;-70
2021/12/19 08:26:25;;;;;;;31.23;13.30;;;2.90;99.90;;;;;;4941380;28;20478;-70
2021/12/19 08:28:54;;;;;;;29.40;12.27;;;2.90;99.90;;;;;;4954572;29;20453;-71
2021/12/19 08:31:21;;;;;;;35.33;12.63;;;2.80;99.90;;;;;;4953506;29;20521;-71
2021/12/19 08:33:49;;;;;;;34.43;13.10;;;2.80;99.90;;;;;;4954326;29;20543;-69
2021/12/19 08:36:16;;;;;;;33.77;13.13;;;2.80;99.90;;;;;;4955986;29;20598;-69
2021/12/19 08:38:46;;;;;;;37.20;13.37;;;2.90;99.90;;;;;;4956386;29;20553;-70
2021/12/19 08:41:13;;;;;;;36.97;13.57;;;2.80;99.90;;;;;;4955917;28;20543;-70
2021/12/19 08:43:40;;;;;;;33.17;12.60;;;2.80;99.90;;;;;;4956119;29;20888;-71
2021/12/19 08:46:09;;;;;;;35.57;12.90;;;2.80;99.90;;;;;;4956088;28;20555;-70
2021/12/19 08:48:36;;;;;;;30.83;11.50;;;2.90;99.90;;;;;;4955889;28;20503;-70
2021/12/19 08:51:03;;;;;;;32.53;13.40;;;2.90;99.90;;;;;;4956115;29;20560;-71
2021/12/19 08:53:32;;;;;;;32.33;11.93;;;2.90;99.90;;;;;;4956214;29;20665;-70
2021/12/19 08:56:00;;;;;;;32.10;12.63;;;2.90;99.90;;;;;;4955912;29;20939;-70
2021/12/19 08:58:29;;;;;;;28.27;13.03;;;2.90;99.90;;;;;;4955984;29;20552;-71
2021/12/19 09:00:58;;;;;;;32.60;12.60;;;3.00;99.90;;;;;;4955652;28;20456;-71
2021/12/19 09:03:24;;;;;;;31.63;11.50;;;3.10;99.90;;;;;;4955969;29;20509;-69
2021/12/19 09:05:51;;;;;;;32.80;12.47;;;3.00;99.90;;;;;;4955917;29;20564;-69
2021/12/19 09:08:18;;;;;;;29.73;12.87;;;3.00;99.90;;;;;;4955975;29;20515;-71
2021/12/19 09:10:45;;;;;;;38.80;13.03;;;3.00;99.90;;;;;;4955608;29;20540;-69
2021/12/19 09:13:14;;;;;;;34.60;12.90;;;2.90;99.90;;;;;;4955698;29;20876;-69
2021/12/19 09:15:41;;;;;;;29.40;13.30;;;3.00;99.90;;;;;;4955258;29;20595;-71
2021/12/19 09:18:08;;;;;;;26.30;13.40;;;2.90;99.90;;;;;;4955744;29;20544;-71
2021/12/19 09:20:35;;;;;;;27.40;11.10;;;2.90;99.90;;;;;;4955483;29;20508;-71
2021/12/19 09:23:02;;;;;;;31.07;12.67;;;2.90;99.90;;;;;;4955574;29;20484;-71
2021/12/19 09:25:29;;;;;;;34.70;12.03;;;2.90;99.90;;;;;;4955339;28;20512;-71
2021/12/19 09:27:56;;;;;;;24.87;11.30;;;2.80;99.90;;;;;;4955442;29;20545;-71
2021/12/19 09:30:25;;;;;;;35.43;13.13;;;2.80;99.90;;;;;;4954928;29;20547;-72
2021/12/19 09:32:52;;;;;;;31.70;11.57;;;2.90;99.90;;;;;;4955486;28;20467;-70
2021/12/19 09:35:19;;;;;;;29.73;11.80;;;2.80;99.90;;;;;;4955039;29;20592;-71
2021/12/19 09:37:49;;;;;;;29.63;13.73;;;2.80;99.90;;;;;;4955440;29;20548;-71
2021/12/19 09:40:21;;;;;;;28.43;11.03;;;2.80;99.90;;;;;;4954967;29;20935;-70
2021/12/19 09:42:50;;;;;;;33.30;13.80;;;2.80;99.90;;;;;;4954866;29;20480;-72
2021/12/19 09:45:18;;;;;;;31.27;12.27;;;2.80;99.90;;;;;;4955231;28;20477;-71
2021/12/19 09:47:46;;;;;;;30.67;12.60;;;2.80;99.90;;;;;;4955024;29;20996;-71
2021/12/19 09:50:14;;;;;;;29.40;12.87;;;2.80;99.90;;;;;;4954710;29;21040;-70
2021/12/19 09:52:41;;;;;;;33.23;13.20;;;2.80;99.90;;;;;;4954384;28;20448;-71
2021/12/19 09:55:09;;;;;;;33.57;12.80;;;2.80;99.90;;;;;;4955126;28;20564;-70
2021/12/19 09:57:36;;;;;;;31.90;12.40;;;2.80;99.90;;;;;;4954947;29;20519;-70
2021/12/19 10:00:05;;;;;;;28.20;12.70;;;2.80;99.90;;;;;;4954735;28;20456;-70
2021/12/19 10:02:32;;;;;;;34.07;14.03;;;2.80;99.90;;;;;;4954729;29;20484;-70
2021/12/19 10:05:15;;;;;;;29.07;13.07;;;2.90;99.90;;;;;;4954800;29;20542;-71
2021/12/19 10:07:47;;;;;;;29.80;12.53;;;3.00;99.90;;;;;;4954527;29;20457;-71
2021/12/19 10:10:24;;;;;;;27.23;12.40;;;3.00;99.90;;;;;;4954658;29;20544;-71
2021/12/19 10:12:57;;;;;;;33.33;14.20;;;3.00;99.90;;;;;;4954798;29;20452;-71
2021/12/19 10:15:29;;;;;;;31.13;13.07;;;3.00;99.90;;;;;;4954288;29;20489;-71
2021/12/19 10:18:02;;;;;;;28.77;12.27;;;3.00;99.90;;;;;;4953504;29;20491;-71
2021/12/19 10:20:45;;;;;;;29.20;12.43;;;2.90;99.90;;;;;;4953885;29;20552;-70
2021/12/19 10:23:15;;;;;;;29.33;12.57;;;2.80;99.90;;;;;;4954532;29;20480;-71
2021/12/19 10:25:42;;;;;;;25.40;12.27;;;2.90;99.90;;;;;;4954401;29;20505;-70
2021/12/19 10:28:11;;;;;;;24.57;12.63;;;2.80;99.90;;;;;;4954149;29;20464;-71
2021/12/19 10:30:43;;;;;;;31.60;13.67;;;2.80;99.90;;;;;;4953651;29;20492;-71
2021/12/19 10:33:11;;;;;;;26.53;12.33;;;2.90;99.90;;;;;;4954450;28;20449;-71
2021/12/19 10:35:41;;;;;;;23.40;10.60;;;2.90;99.90;;;;;;4953979;29;20592;-71
2021/12/19 10:38:14;;;;;;;22.40;10.97;;;2.80;99.90;;;;;;4954270;29;20485;-70
2021/12/19 10:40:45;;;;;;;29.07;13.47;;;2.90;99.90;;;;;;4953849;29;20481;-71
2021/12/19 10:43:16;;;;;;;27.93;15.40;;;2.80;99.90;;;;;;4953868;28;20460;-71
2021/12/19 10:45:46;;;;;;;29.30;13.27;;;2.90;99.90;;;;;;4953954;29;20944;-72
2021/12/19 10:48:25;;;;;;;26.73;12.10;;;3.00;99.90;;;;;;4954055;29;20453;-71
2021/12/19 10:51:00;;;;;;;31.40;13.63;;;3.00;99.90;;;;;;4954069;29;20540;-71
2021/12/19 10:53:31;;;;;;;25.77;12.90;;;3.00;99.90;;;;;;4953912;29;20538;-71
2021/12/19 10:55:58;;;;;;;26.17;12.33;;;3.00;99.90;;;;;;4954049;29;20556;-70
2021/12/19 10:58:35;;;;;;;24.63;11.03;;;3.00;99.90;;;;;;4953807;29;20552;-70
2021/12/19 11:01:10;;;;;;;29.27;14.53;;;3.00;99.90;;;;;;4953763;29;20467;-71
2021/12/19 11:03:48;;;;;;;29.50;13.60;;;3.10;99.90;;;;;;4953954;29;20555;-71
2021/12/19 11:06:31;;;;;;;22.53;11.90;;;3.10;99.90;;;;;;4953450;29;20473;-71
2021/12/19 11:09:00;;;;;;;35.63;14.50;;;3.10;99.90;;;;;;4953641;28;20874;-70
2021/12/19 11:11:52;;;;;;;30.33;13.60;;;3.10;99.90;;;;;;4953948;29;20544;-70
2021/12/19 11:16:48;;;;;;;23.90;11.63;;;3.10;99.90;;;;;;4952192;29;20522;-74
2021/12/19 11:19:15;;;;;;;20.27;10.97;;;3.20;99.90;;;;;;4953291;28;20828;-74
2021/12/19 11:21:44;;;;;;;22.57;12.80;;;3.10;99.90;;;;;;4953819;29;20485;-74
2021/12/19 11:24:13;;;;;;;16.43;10.00;;;3.10;99.90;;;;;;4953764;29;20456;-74
2021/12/19 11:26:42;;;;;;;19.83;10.67;;;3.10;99.90;;;;;;4953615;29;20507;-74
2021/12/19 11:29:10;;;;;;;17.90;9.30;;;3.10;99.90;;;;;;4953251;29;20495;-74
2021/12/19 11:31:39;;;;;;;15.77;10.00;;;3.10;99.90;;;;;;4953685;29;20532;-74
2021/12/19 11:34:17;;;;;;;14.40;8.17;;;3.10;99.90;;;;;;4953754;29;20456;-74
2021/12/19 11:36:48;;;;;;;33.40;9.80;;;3.10;99.90;;;;;;4953777;29;20492;-75
2021/12/19 11:39:16;;;;;;;15.00;8.97;;;3.00;99.90;;;;;;4953529;28;20528;-75
2021/12/19 11:42:06;;;;;;;15.47;9.30;;;3.00;99.90;;;;;;4953426;28;20516;-73
2021/12/19 11:44:36;;;;;;;16.60;10.27;;;3.00;99.90;;;;;;4953417;28;20457;-73
2021/12/19 11:47:09;;;;;;;17.13;9.10;;;3.00;99.90;;;;;;4953639;28;20508;-74
2021/12/19 11:49:36;;;;;;;13.87;8.80;;;3.00;99.90;;;;;;4953181;29;20453;-74
2021/12/19 11:52:25;;;;;;;16.07;8.70;;;3.00;99.90;;;;;;4953131;29;21023;-74
2021/12/19 11:55:20;;;;;;;14.83;8.57;;;3.00;99.90;;;;;;4953199;29;21103;-74
2021/12/19 11:58:22;;;;;;;13.00;8.13;;;3.00;99.90;;;;;;4944170;29;20560;-75
2021/12/19 12:00:55;;;;;;;14.60;8.80;;;3.00;99.90;;;;;;4953768;28;20523;-75
2021/12/19 12:03:28;;;;;;;13.93;8.30;;;3.00;99.90;;;;;;4953522;29;20520;-75
2021/12/19 12:06:24;;;;;;;17.00;9.40;;;3.00;99.90;;;;;;4953217;29;20928;-74
2021/12/19 12:09:14;;;;;;;12.80;8.20;;;3.00;99.90;;;;;;4953368;28;20503;-74
2021/12/19 12:12:03;;;;;;;14.53;8.77;;;3.00;99.90;;;;;;4953324;29;20539;-74
2021/12/19 12:14:34;;;;;;;14.73;9.37;;;3.00;99.90;;;;;;4952867;28;20464;-74
2021/12/19 12:17:09;;;;;;;19.13;10.77;;;3.00;99.90;;;;;;4956632;29;20492;-73
2021/12/19 12:19:42;;;;;;;15.40;10.40;;;3.10;99.90;;;;;;4957136;28;20479;-74
2021/12/19 12:22:37;;;;;;;17.37;10.43;;;3.00;99.90;;;;;;4956806;29;20452;-74
2021/12/19 12:25:17;;;;;;;15.53;10.33;;;3.00;99.90;;;;;;4956633;29;20476;-74
2021/12/19 12:27:51;;;;;;;12.13;8.37;;;3.10;99.90;;;;;;4956580;29;20496;-74
2021/12/19 12:30:21;;;;;;;13.10;9.20;;;3.00;99.90;;;;;;4956569;29;20479;-74
2021/12/19 12:32:48;;;;;;;14.03;9.23;;;3.00;99.90;;;;;;4956582;29;20487;-74
2021/12/19 12:35:17;;;;;;;19.50;10.87;;;3.00;99.90;;;;;;4956384;28;20551;-74
2021/12/19 12:37:45;;;;;;;14.40;10.63;;;3.00;99.90;;;;;;4956798;29;20528;-75
2021/12/19 12:40:24;;;;;;;14.33;9.70;;;3.10;99.90;;;;;;4956475;29;20508;-74
2021/12/19 12:43:08;;;;;;;14.93;10.23;;;3.00;99.90;;;;;;4956447;29;20449;-74
2021/12/19 12:45:50;;;;;;;16.23;10.93;;;3.00;99.90;;;;;;4956240;29;20484;-75
2021/12/19 12:48:29;;;;;;;15.67;11.70;;;3.10;99.90;;;;;;4956103;29;20481;-74
2021/12/19 12:50:56;;;;;;;16.33;10.33;;;3.10;99.90;;;;;;4955852;29;20836;-74
2021/12/19 12:53:31;;;;;;;14.27;10.40;;;3.10;99.90;;;;;;4956436;29;20557;-74
2021/12/19 12:56:09;;;;;;;17.53;10.73;;;3.10;99.90;;;;;;4956471;28;20468;-74
2021/12/19 12:58:39;;;;;;;15.53;10.70;;;3.10;99.90;;;;;;4955915;29;20464;-74
2021/12/19 13:01:17;;;;;;;16.23;12.00;;;3.10;99.90;;;;;;4956008;28;20456;-74
2021/12/19 13:04:05;;;;;;;19.80;12.30;;;3.00;99.90;;;;;;4956161;29;20748;-74
2021/12/19 13:06:50;;;;;;;20.70;13.70;;;3.10;99.90;;;;;;4955835;28;20551;-73
2021/12/19 13:09:21;;;;;;;20.43;13.97;;;3.10;99.90;;;;;;4956127;29;20543;-74
2021/12/19 13:11:51;;;;;;;21.90;14.33;;;3.10;99.90;;;;;;4956439;29;20532;-74
2021/12/19 13:14:22;;;;;;;19.77;12.80;;;3.10;99.90;;;;;;4956045;29;20554;-74
2021/12/19 13:16:52;;;;;;;22.63;12.57;;;3.00;99.90;;;;;;4955817;29;21028;-74
2021/12/19 13:19:37;;;;;;;18.97;12.63;;;3.00;99.90;;;;;;4955533;28;20520;-74
2021/12/19 13:22:06;;;;;;;22.27;13.57;;;3.00;99.90;;;;;;4955955;29;20527;-74
2021/12/19 13:24:35;;;;;;;20.00;13.17;;;2.90;99.90;;;;;;4955863;29;20484;-74
2021/12/19 13:27:10;;;;;;;25.77;16.13;;;2.90;99.90;;;;;;4954711;28;20445;-74
2021/12/19 13:29:39;;;;;;;30.87;16.37;;;2.90;99.90;;;;;;4955274;29;20892;-74
2021/12/19 13:32:20;;;;;;;31.67;17.00;;;2.90;99.90;;;;;;4956173;29;20468;-74
2021/12/19 13:34:48;;;;;;;32.03;18.17;;;2.90;99.90;;;;;;4955655;29;20559;-75
2021/12/19 13:37:15;;;;;;;34.70;18.47;;;2.90;99.90;;;;;;4955261;29;20584;-75
2021/12/19 13:39:45;;;;;;;27.83;15.50;;;2.90;99.90;;;;;;4955413;29;20543;-74
2021/12/19 13:42:14;;;;;;;28.47;16.90;;;2.80;99.90;;;;;;4955521;29;20449;-74
2021/12/19 13:44:42;;;;;;;34.40;18.33;;;2.80;99.90;;;;;;4954875;29;20477;-74
2021/12/19 13:47:14;;;;;;;28.63;16.90;;;2.80;99.90;;;;;;4955223;29;20456;-74
2021/12/19 13:49:41;;;;;;;32.70;16.87;;;2.80;99.90;;;;;;4954820;29;20491;-74
2021/12/19 13:52:09;;;;;;;27.40;16.23;;;2.80;99.90;;;;;;4955094;29;20543;-74
2021/12/19 13:54:38;;;;;;;29.73;17.10;;;2.80;99.90;;;;;;4954954;29;20468;-74
2021/12/19 13:57:19;;;;;;;30.17;17.10;;;2.70;99.90;;;;;;4954789;28;20493;-74
2021/12/19 13:59:46;;;;;;;30.87;17.30;;;2.70;99.90;;;;;;4954748;29;20882;-74
2021/12/19 14:02:14;;;;;;;34.80;19.40;;;2.70;99.90;;;;;;4954947;28;20552;-74
2021/12/19 14:04:42;;;;;;;31.63;17.47;;;2.70;99.90;;;;;;4954644;29;20524;-74
2021/12/19 14:07:15;;;;;;;30.70;17.53;;;2.70;99.90;;;;;;4954707;29;20532;-74
2021/12/19 14:09:44;;;;;;;37.50;19.90;;;2.70;99.90;;;;;;4954359;29;20464;-74
2021/12/19 14:12:15;;;;;;;37.10;19.13;;;2.70;99.90;;;;;;4954963;29;20910;-74
2021/12/19 14:14:43;;;;;;;36.43;19.57;;;2.70;99.90;;;;;;4954596;28;20484;-74
2021/12/19 14:17:29;;;;;;;38.80;21.70;;;2.80;99.90;;;;;;4955300;28;20525;-75
2021/12/19 14:20:00;;;;;;;32.97;18.60;;;2.80;99.90;;;;;;4955104;29;20457;-74
2021/12/19 14:22:27;;;;;;;34.03;19.97;;;2.80;99.90;;;;;;4954574;28;20460;-74
2021/12/19 14:24:56;;;;;;;36.60;18.40;;;2.70;99.90;;;;;;4954263;29;20504;-74
2021/12/19 14:27:25;;;;;;;32.90;18.13;;;2.70;99.90;;;;;;4954490;29;20892;-74
2021/12/19 14:30:00;;;;;;;33.00;18.80;;;2.70;99.90;;;;;;4954273;28;20452;-74
2021/12/19 14:32:30;;;;;;;33.07;17.20;;;2.70;99.90;;;;;;4954266;29;20860;-74
2021/12/19 14:34:59;;;;;;;31.47;17.43;;;2.70;99.90;;;;;;4954200;29;20559;-74
2021/12/19 14:37:30;;;;;;;34.53;19.87;;;2.70;99.90;;;;;;4954252;29;20583;-74
2021/12/19 14:40:02;;;;;;;31.70;18.07;;;2.70;99.90;;;;;;4953772;28;20492;-74
2021/12/19 14:42:31;;;;;;;28.33;17.40;;;2.70;99.90;;;;;;4954114;29;20451;-74
2021/12/19 14:45:01;;;;;;;29.70;18.20;;;2.70;99.90;;;;;;4953827;29;20468;-74
2021/12/19 14:47:37;;;;;;;34.50;19.00;;;2.70;99.90;;;;;;4954284;29;20484;-74
2021/12/19 14:50:19;;;;;;;41.80;20.30;;;2.60;99.90;;;;;;4953859;29;20483;-74
2021/12/19 14:53:06;;;;;;;36.33;19.67;;;2.60;99.90;;;;;;4953871;29;20544;-74
2021/12/19 14:55:36;;;;;;;32.23;17.90;;;2.60;99.90;;;;;;4953899;29;20476;-74
2021/12/19 14:58:04;;;;;;;35.60;18.97;;;2.60;99.90;;;;;;4954172;28;20587;-74
2021/12/19 15:00:34;;;;;;;33.03;18.30;;;2.70;99.90;;;;;;4953773;29;20547;-74
2021/12/19 15:03:01;;;;;;;40.10;20.33;;;2.70;99.90;;;;;;4953784;29;20906;-74
2021/12/19 15:05:32;;;;;;;36.50;20.13;;;2.60;99.90;;;;;;4953810;29;20487;-74
2021/12/19 15:07:59;;;;;;;35.93;19.70;;;2.60;99.90;;;;;;4953671;29;20883;-74
2021/12/19 15:10:26;;;;;;;35.47;18.90;;;2.70;99.90;;;;;;4953526;29;20991;-74
2021/12/19 15:12:53;;;;;;;37.03;18.30;;;2.60;99.90;;;;;;4953937;28;20516;-74
2021/12/19 15:15:20;;;;;;;36.87;19.57;;;2.60;99.90;;;;;;4953621;29;20513;-74
2021/12/19 15:17:48;;;;;;;47.50;22.20;;;2.60;99.90;;;;;;4953678;29;21099;-74
2021/12/19 15:20:16;;;;;;;38.77;19.60;;;2.60;99.90;;;;;;4953405;29;20503;-74
2021/12/19 15:22:43;;;;;;;38.30;19.70;;;2.60;99.90;;;;;;4953902;28;20491;-74
2021/12/19 15:25:11;;;;;;;43.20;20.70;;;2.60;99.90;;;;;;4953803;29;20511;-74
2021/12/19 15:27:49;;;;;;;39.40;20.27;;;2.60;99.90;;;;;;4953638;29;20971;-75
2021/12/19 15:30:17;;;;;;;44.20;21.00;;;2.60;99.90;;;;;;4953655;29;20825;-74
2021/12/19 15:32:44;;;;;;;45.23;22.43;;;2.60;99.90;;;;;;4953835;29;20930;-74
2021/12/19 15:35:13;;;;;;;41.80;21.77;;;2.60;99.90;;;;;;4953469;29;20574;-74
2021/12/19 15:37:41;;;;;;;49.37;23.77;;;2.60;99.90;;;;;;4953423;29;20524;-75
2021/12/19 15:40:10;;;;;;;43.17;21.50;;;2.60;99.90;;;;;;4953430;29;20665;-74
2021/12/19 15:42:37;;;;;;;48.60;23.30;;;2.60;99.90;;;;;;4953456;28;20457;-75
2021/12/19 15:45:06;;;;;;;49.17;21.07;;;2.70;99.90;;;;;;4953423;29;20535;-73
2021/12/19 15:47:33;;;;;;;55.57;23.97;;;2.70;99.90;;;;;;4953729;28;20533;-73
2021/12/19 15:50:00;;;;;;;55.53;23.60;;;2.70;99.90;;;;;;4953357;28;20552;-74
2021/12/19 15:52:29;;;;;;;51.83;22.57;;;2.70;99.90;;;;;;4957373;29;20457;-73
2021/12/19 15:54:55;;;;;;;46.83;21.77;;;2.70;99.90;;;;;;4957201;29;20500;-73
2021/12/19 15:57:22;;;;;;;46.63;23.00;;;2.70;99.90;;;;;;4956927;29;20531;-73
2021/12/19 15:59:49;;;;;;;56.93;24.00;;;2.70;99.90;;;;;;4956672;29;21001;-73
2021/12/19 16:02:17;;;;;;;55.67;25.63;;;2.70;99.90;;;;;;4957245;29;20559;-73
2021/12/19 16:04:45;;;;;;;67.20;24.17;;;2.70;99.90;;;;;;4956937;28;20856;-73
2021/12/19 16:07:13;;;;;;;56.50;24.03;;;2.70;99.90;;;;;;4956897;29;20963;-73
2021/12/19 16:09:42;;;;;;;50.57;22.77;;;2.70;99.90;;;;;;4956705;29;20491;-74
2021/12/19 16:12:10;;;;;;;67.97;24.87;;;2.70;99.90;;;;;;4956891;28;20495;-74
2021/12/19 16:14:38;;;;;;;53.80;23.53;;;2.70;99.90;;;;;;4956479;29;21088;-74
2021/12/19 16:17:06;;;;;;;58.43;24.23;;;2.70;99.90;;;;;;4957297;29;20496;-74
2021/12/19 16:19:34;;;;;;;54.30;24.10;;;2.80;99.90;;;;;;4957195;28;20481;-74
2021/12/19 16:22:01;;;;;;;55.90;24.27;;;2.80;99.90;;;;;;4957129;29;20480;-74
2021/12/19 16:24:29;;;;;;;62.73;25.73;;;2.90;99.90;;;;;;4956945;29;20518;-74
2021/12/19 16:26:57;;;;;;;57.50;24.60;;;2.90;99.90;;;;;;4956750;29;20511;-74
2021/12/19 16:29:27;;;;;;;60.80;24.23;;;3.00;99.90;;;;;;4956394;29;20480;-75
2021/12/19 16:31:54;;;;;;;67.10;27.17;;;3.00;99.90;;;;;;4956603;29;21048;-75
2021/12/19 16:34:21;;;;;;;62.37;27.40;;;3.00;99.90;;;;;;4956750;29;20487;-74
2021/12/19 16:36:47;;;;;;;66.93;26.90;;;3.10;99.90;;;;;;4956461;29;20484;-75
2021/12/19 16:39:17;;;;;;;65.93;25.13;;;3.10;99.90;;;;;;4956367;29;20583;-75
2021/12/19 16:41:47;;;;;;;74.83;32.47;;;3.20;99.90;;;;;;4956530;29;20456;-75
2021/12/19 16:44:18;;;;;;;73.27;32.60;;;3.10;99.90;;;;;;4956915;29;20523;-75
2021/12/19 16:46:46;;;;;;;77.90;31.00;;;3.10;99.90;;;;;;4956721;28;20465;-75
2021/12/19 16:49:14;;;;;;;82.97;32.57;;;3.10;99.90;;;;;;4956365;29;20535;-75
2021/12/19 16:51:41;;;;;;;74.67;30.30;;;3.10;99.90;;;;;;4956420;29;20549;-75
2021/12/19 16:54:08;;;;;;;96.30;32.33;;;3.10;99.90;;;;;;4956204;29;20541;-74
2021/12/19 16:56:35;;;;;;;75.50;28.10;;;3.10;99.90;;;;;;4956447;29;20919;-73
2021/12/19 16:59:02;;;;;;;80.33;29.17;;;3.10;99.90;;;;;;4955803;28;20493;-75
2021/12/19 17:01:31;;;;;;;83.60;29.30;;;3.10;99.90;;;;;;4955867;28;20460;-74
2021/12/19 17:03:58;;;;;;;92.93;31.80;;;3.10;99.90;;;;;;4955887;29;20493;-75
2021/12/19 17:06:25;;;;;;;93.93;28.63;;;3.10;99.90;;;;;;4955835;29;20532;-75
2021/12/19 17:08:52;;;;;;;86.93;29.47;;;3.00;99.90;;;;;;4956152;29;20531;-74
2021/12/19 17:11:22;;;;;;;93.37;30.20;;;3.00;99.90;;;;;;4955255;29;20449;-74
2021/12/19 17:14:07;;;;;;;202.17;77.63;;;3.00;99.90;;;;;;4954604;29;20960;-74
2021/12/19 17:16:36;;;;;;;256.30;120.13;;;3.00;99.90;;;;;;4978057;23;20503;-70
2021/12/19 17:19:04;;;;;;;87.90;29.77;;;3.10;99.90;;;;;;4954379;28;20500;-71
2021/12/19 17:21:32;;;;;;;93.20;32.67;;;3.10;99.90;;;;;;4954381;28;20491;-72
2021/12/19 17:23:59;;;;;;;93.87;30.80;;;3.10;99.90;;;;;;4955016;28;20976;-70
2021/12/19 17:26:26;;;;;;;106.27;33.23;;;3.10;99.90;;;;;;4955571;28;20502;-71
2021/12/19 17:28:53;;;;;;;100.30;33.80;;;3.10;99.90;;;;;;4955247;29;20808;-70
2021/12/19 17:31:20;;;;;;;105.10;33.00;;;3.10;99.90;;;;;;4955567;29;20578;-73
2021/12/19 17:33:50;;;;;;;97.83;31.30;;;3.00;99.90;;;;;;4955404;29;20497;-73
2021/12/19 17:36:18;;;;;;;101.23;30.37;;;3.00;99.90;;;;;;4955345;28;21008;-73
2021/12/19 17:38:48;;;;;;;105.20;30.43;;;3.00;99.90;;;;;;4955231;29;20488;-73
2021/12/19 17:41:15;;;;;;;114.47;34.20;;;3.00;99.90;;;;;;4955454;28;20536;-73
2021/12/19 17:43:42;;;;;;;98.23;33.93;;;3.00;99.90;;;;;;4955394;29;20445;-73
2021/12/19 17:46:09;;;;;;;121.37;40.03;;;3.00;99.90;;;;;;4955138;28;20500;-73
2021/12/19 17:48:36;;;;;;;106.73;34.30;;;2.90;99.90;;;;;;4955210;29;20441;-75
2021/12/19 17:51:06;;;;;;;115.63;35.80;;;2.90;99.90;;;;;;4955057;29;20449;-73
2021/12/19 17:53:33;;;;;;;106.60;34.13;;;2.90;99.90;;;;;;4955451;29;20547;-73
2021/12/19 17:56:00;;;;;;;95.80;30.60;;;2.90;99.90;;;;;;4955125;28;20504;-72
2021/12/19 17:58:29;;;;;;;102.67;36.53;;;3.00;99.90;;;;;;4954860;28;20584;-72
2021/12/19 18:00:57;;;;;;;101.83;31.60;;;2.90;99.90;;;;;;4954883;28;20956;-72
2021/12/19 18:03:28;;;;;;;96.93;32.90;;;3.00;99.90;;;;;;4955166;29;20476;-73
2021/12/19 18:05:56;;;;;;;106.27;35.07;;;3.00;99.90;;;;;;4954983;28;20477;-73
2021/12/19 18:08:25;;;;;;;108.33;37.40;;;2.90;99.90;;;;;;4954766;29;20451;-72
2021/12/19 18:10:53;;;;;;;110.33;36.27;;;3.00;99.90;;;;;;4954827;28;20460;-73